sensor_id;sensor_type;location;lat;lon;timestamp;temperature;humidity
20526;DHT22;10421;49.142;9.232;2023-06-04T00:01:58;20.90;51.50
20526;DHT22;10421;49.142;9.232;2023-06-04T00:04:25;20.90;51.50
20526;DHT22;10421;49.142;9.232;2023-06-04T00:06:54;20.90;51.40
20526;DHT22;10421;49.142;9.232;2023-06-04T00:09:21;20.90;51.40
20526;DHT22;10421;49.142;9.232;2023-06-04T00:11:47;20.80;51.20
20526;DHT22;10421;49.142;9.232;2023-06-04T00:14:15;20.80;51.20
20526;DHT22;10421;49.142;9.232;2023-06-04T00:16:42;20.70;51.20
20526;DHT22;10421;49.142;9.232;2023-06-04T00:19:09;20.70;51.20
20526;DHT22;10421;49.142;9.232;2023-06-04T00:21:36;20.60;51.10
20526;DHT22;10421;49.142;9.232;2023-06-04T00:24:02;20.60;51.10
20526;DHT22;10421;49.142;9.232;2023-06-04T00:26:29;20.60;51.10
20526;DHT22;10421;49.142;9.232;2023-06-04T00:28:56;20.50;51.10
20526;DHT22;10421;49.142;9.232;2023-06-04T00:31:24;20.40;51.10
20526;DHT22;10421;49.142;9.232;2023-06-04T00:33:51;20.40;51.10
20526;DHT22;10421;49.142;9.232;2023-06-04T00:36:18;20.30;51.00
20526;DHT22;10421;49.142;9.232;2023-06-04T00:38:45;20.20;51.00
20526;DHT22;10421;49.142;9.232;2023-06-04T00:41:12;20.20;51.00
20526;DHT22;10421;49.142;9.232;2023-06-04T00:43:39;20.10;51.00
20526;DHT22;10421;49.142;9.232;2023-06-04T00:46:06;20.00;51.50
20526;DHT22;10421;49.142;9.232;2023-06-04T00:48:35;20.00;50.90
20526;DHT22;10421;49.142;9.232;2023-06-04T00:51:02;20.00;50.70
20526;DHT22;10421;49.142;9.232;2023-06-04T00:53:29;19.90;50.60
20526;DHT22;10421;49.142;9.232;2023-06-04T00:55:55;19.80;50.50
20526;DHT22;10421;49.142;9.232;2023-06-04T00:58:22;19.80;50.50
20526;DHT22;10421;49.142;9.232;2023-06-04T01:00:51;19.80;50.30
20526;DHT22;10421;49.142;9.232;2023-06-04T01:03:22;19.70;50.20
20526;DHT22;10421;49.142;9.232;2023-06-04T01:05:59;19.80;50.30
20526;DHT22;10421;49.142;9.232;2023-06-04T01:08:27;19.70;50.10
20526;DHT22;10421;49.142;9.232;2023-06-04T01:10:55;19.70;50.00
20526;DHT22;10421;49.142;9.232;2023-06-04T01:13:22;19.60;49.90
20526;DHT22;10421;49.142;9.232;2023-06-04T01:15:49;19.60;50.00
20526;DHT22;10421;49.142;9.232;2023-06-04T01:18:18;19.50;49.90
20526;DHT22;10421;49.142;9.232;2023-06-04T01:20:56;19.50;50.00
20526;DHT22;10421;49.142;9.232;2023-06-04T01:23:28;19.40;50.00
20526;DHT22;10421;49.142;9.232;2023-06-04T01:26:00;19.40;50.00
20526;DHT22;10421;49.142;9.232;2023-06-04T01:28:29;19.40;50.00
20526;DHT22;10421;49.142;9.232;2023-06-04T01:30:56;19.30;50.60
20526;DHT22;10421;49.142;9.232;2023-06-04T01:33:25;19.30;50.00
20526;DHT22;10421;49.142;9.232;2023-06-04T01:35:52;19.30;50.00
20526;DHT22;10421;49.142;9.232;2023-06-04T01:38:20;19.30;50.00
20526;DHT22;10421;49.142;9.232;2023-06-04T01:40:47;19.20;49.90
20526;DHT22;10421;49.142;9.232;2023-06-04T01:43:14;19.20;50.00
20526;DHT22;10421;49.142;9.232;2023-06-04T01:45:41;19.20;50.00
20526;DHT22;10421;49.142;9.232;2023-06-04T01:48:07;19.20;49.80
20526;DHT22;10421;49.142;9.232;2023-06-04T01:50:34;19.20;49.80
20526;DHT22;10421;49.142;9.232;2023-06-04T01:53:01;19.20;50.50
20526;DHT22;10421;49.142;9.232;2023-06-04T01:55:29;19.20;49.80
20526;DHT22;10421;49.142;9.232;2023-06-04T01:58:00;19.20;49.80
20526;DHT22;10421;49.142;9.232;2023-06-04T02:00:27;19.20;49.70
20526;DHT22;10421;49.142;9.232;2023-06-04T02:02:53;19.20;49.70
20526;DHT22;10421;49.142;9.232;2023-06-04T02:05:21;19.20;49.60
20526;DHT22;10421;49.142;9.232;2023-06-04T02:07:48;19.20;49.60
20526;DHT22;10421;49.142;9.232;2023-06-04T02:10:16;19.20;49.60
20526;DHT22;10421;49.142;9.232;2023-06-04T02:12:55;19.10;49.50
20526;DHT22;10421;49.142;9.232;2023-06-04T02:15:23;19.10;49.50
20526;DHT22;10421;49.142;9.232;2023-06-04T02:17:50;19.10;49.40
20526;DHT22;10421;49.142;9.232;2023-06-04T02:20:17;19.10;49.50
20526;DHT22;10421;49.142;9.232;2023-06-04T02:22:44;19.10;49.60
20526;DHT22;10421;49.142;9.232;2023-06-04T02:25:11;19.10;49.60
20526;DHT22;10421;49.142;9.232;2023-06-04T02:27:38;19.10;49.60
20526;DHT22;10421;49.142;9.232;2023-06-04T02:30:07;19.00;49.50
20526;DHT22;10421;49.142;9.232;2023-06-04T02:32:34;19.00;49.60
20526;DHT22;10421;49.142;9.232;2023-06-04T02:35:01;19.00;49.60
20526;DHT22;10421;49.142;9.232;2023-06-04T02:37:28;18.90;49.60
20526;DHT22;10421;49.142;9.232;2023-06-04T02:39:55;18.90;49.70
20526;DHT22;10421;49.142;9.232;2023-06-04T02:42:22;18.90;49.70
20526;DHT22;10421;49.142;9.232;2023-06-04T02:44:48;18.90;49.70
20526;DHT22;10421;49.142;9.232;2023-06-04T02:47:16;18.80;49.70
20526;DHT22;10421;49.142;9.232;2023-06-04T02:49:44;18.80;49.80
20526;DHT22;10421;49.142;9.232;2023-06-04T02:52:12;18.80;49.90
20526;DHT22;10421;49.142;9.232;2023-06-04T02:54:38;18.80;49.90
20526;DHT22;10421;49.142;9.232;2023-06-04T02:57:06;18.80;49.90
20526;DHT22;10421;49.142;9.232;2023-06-04T02:59:34;18.70;49.80
20526;DHT22;10421;49.142;9.232;2023-06-04T03:02:00;18.60;49.90
20526;DHT22;10421;49.142;9.232;2023-06-04T03:04:28;18.60;50.00
20526;DHT22;10421;49.142;9.232;2023-06-04T03:07:00;18.50;50.00
20526;DHT22;10421;49.142;9.232;2023-06-04T03:09:26;18.40;50.10
20526;DHT22;10421;49.142;9.232;2023-06-04T03:11:53;18.50;50.20
20526;DHT22;10421;49.142;9.232;2023-06-04T03:14:20;18.50;50.30
20526;DHT22;10421;49.142;9.232;2023-06-04T03:16:46;18.40;50.20
20526;DHT22;10421;49.142;9.232;2023-06-04T03:19:14;18.40;50.30
20526;DHT22;10421;49.142;9.232;2023-06-04T03:21:43;18.40;50.20
20526;DHT22;10421;49.142;9.232;2023-06-04T03:24:10;18.40;50.30
20526;DHT22;10421;49.142;9.232;2023-06-04T03:26:37;18.40;50.30
20526;DHT22;10421;49.142;9.232;2023-06-04T03:29:03;18.40;50.20
20526;DHT22;10421;49.142;9.232;2023-06-04T03:31:30;18.50;50.30
20526;DHT22;10421;49.142;9.232;2023-06-04T03:33:57;18.50;50.30
20526;DHT22;10421;49.142;9.232;2023-06-04T03:36:24;18.50;50.20
20526;DHT22;10421;49.142;9.232;2023-06-04T03:38:58;18.50;50.20
20526;DHT22;10421;49.142;9.232;2023-06-04T03:41:25;18.60;50.20
20526;DHT22;10421;49.142;9.232;2023-06-04T03:43:52;18.50;50.10
20526;DHT22;10421;49.142;9.232;2023-06-04T03:46:19;18.60;50.10
20526;DHT22;10421;49.142;9.232;2023-06-04T03:48:45;18.50;50.00
20526;DHT22;10421;49.142;9.232;2023-06-04T03:51:12;18.50;50.00
20526;DHT22;10421;49.142;9.232;2023-06-04T03:53:39;18.40;50.10
20526;DHT22;10421;49.142;9.232;2023-06-04T03:56:07;18.40;50.30
20526;DHT22;10421;49.142;9.232;2023-06-04T03:58:35;18.40;50.40
20526;DHT22;10421;49.142;9.232;2023-06-04T04:01:01;18.40;51.00
20526;DHT22;10421;49.142;9.232;2023-06-04T04:03:30;18.40;50.50
20526;DHT22;10421;49.142;9.232;2023-06-04T04:05:57;18.40;50.50
20526;DHT22;10421;49.142;9.232;2023-06-04T04:08:24;18.40;50.50
20526;DHT22;10421;49.142;9.232;2023-06-04T04:10:51;18.40;50.50
20526;DHT22;10421;49.142;9.232;2023-06-04T04:13:19;18.40;51.00
20526;DHT22;10421;49.142;9.232;2023-06-04T04:15:46;18.40;50.40
20526;DHT22;10421;49.142;9.232;2023-06-04T04:18:12;18.30;50.40
20526;DHT22;10421;49.142;9.232;2023-06-04T04:20:42;18.40;50.30
20526;DHT22;10421;49.142;9.232;2023-06-04T04:23:09;18.40;50.30
20526;DHT22;10421;49.142;9.232;2023-06-04T04:25:36;18.30;50.30
20526;DHT22;10421;49.142;9.232;2023-06-04T04:28:03;18.30;50.40
20526;DHT22;10421;49.142;9.232;2023-06-04T04:30:34;18.30;50.40
20526;DHT22;10421;49.142;9.232;2023-06-04T04:33:00;18.30;50.50
20526;DHT22;10421;49.142;9.232;2023-06-04T04:35:27;18.30;50.50
20526;DHT22;10421;49.142;9.232;2023-06-04T04:37:54;18.30;50.50
20526;DHT22;10421;49.142;9.232;2023-06-04T04:40:21;18.30;50.60
20526;DHT22;10421;49.142;9.232;2023-06-04T04:42:48;18.20;50.50
20526;DHT22;10421;49.142;9.232;2023-06-04T04:45:15;18.30;50.70
20526;DHT22;10421;49.142;9.232;2023-06-04T04:47:44;18.30;50.70
20526;DHT22;10421;49.142;9.232;2023-06-04T04:50:10;18.30;50.70
20526;DHT22;10421;49.142;9.232;2023-06-04T04:52:37;18.30;50.60
20526;DHT22;10421;49.142;9.232;2023-06-04T04:55:05;18.40;50.60
20526;DHT22;10421;49.142;9.232;2023-06-04T04:57:31;18.30;50.40
20526;DHT22;10421;49.142;9.232;2023-06-04T04:59:58;18.30;50.60
20526;DHT22;10421;49.142;9.232;2023-06-04T05:02:25;18.30;50.70
20526;DHT22;10421;49.142;9.232;2023-06-04T05:04:53;18.30;50.70
20526;DHT22;10421;49.142;9.232;2023-06-04T05:07:20;18.30;50.70
20526;DHT22;10421;49.142;9.232;2023-06-04T05:09:48;18.30;50.80
20526;DHT22;10421;49.142;9.232;2023-06-04T05:12:15;18.40;50.80
20526;DHT22;10421;49.142;9.232;2023-06-04T05:14:43;18.40;50.70
20526;DHT22;10421;49.142;9.232;2023-06-04T05:17:09;18.40;50.70
20526;DHT22;10421;49.142;9.232;2023-06-04T05:19:38;18.50;50.90
20526;DHT22;10421;49.142;9.232;2023-06-04T05:22:06;18.50;50.80
20526;DHT22;10421;49.142;9.232;2023-06-04T05:24:34;18.50;50.70
20526;DHT22;10421;49.142;9.232;2023-06-04T05:27:00;18.50;50.60
20526;DHT22;10421;49.142;9.232;2023-06-04T05:29:29;18.50;50.50
20526;DHT22;10421;49.142;9.232;2023-06-04T05:31:56;18.60;50.60
20526;DHT22;10421;49.142;9.232;2023-06-04T05:34:22;18.60;50.50
20526;DHT22;10421;49.142;9.232;2023-06-04T05:36:49;18.60;50.50
20526;DHT22;10421;49.142;9.232;2023-06-04T05:39:17;18.60;50.50
20526;DHT22;10421;49.142;9.232;2023-06-04T05:41:44;18.60;50.50
20526;DHT22;10421;49.142;9.232;2023-06-04T05:44:11;18.50;50.50
20526;DHT22;10421;49.142;9.232;2023-06-04T05:46:37;18.60;50.60
20526;DHT22;10421;49.142;9.232;2023-06-04T05:49:04;18.60;50.50
20526;DHT22;10421;49.142;9.232;2023-06-04T05:51:31;18.60;50.50
20526;DHT22;10421;49.142;9.232;2023-06-04T05:53:57;18.60;50.50
20526;DHT22;10421;49.142;9.232;2023-06-04T05:56:25;18.60;50.70
20526;DHT22;10421;49.142;9.232;2023-06-04T05:58:52;18.60;50.90
20526;DHT22;10421;49.142;9.232;2023-06-04T06:01:19;18.70;50.80
20526;DHT22;10421;49.142;9.232;2023-06-04T06:03:47;18.70;50.70
20526;DHT22;10421;49.142;9.232;2023-06-04T06:06:13;18.80;50.70
20526;DHT22;10421;49.142;9.232;2023-06-04T06:08:40;18.80;50.70
20526;DHT22;10421;49.142;9.232;2023-06-04T06:11:07;18.80;50.80
20526;DHT22;10421;49.142;9.232;2023-06-04T06:13:35;18.90;50.90
20526;DHT22;10421;49.142;9.232;2023-06-04T06:16:02;19.00;50.50
20526;DHT22;10421;49.142;9.232;2023-06-04T06:18:28;19.00;50.30
20526;DHT22;10421;49.142;9.232;2023-06-04T06:20:56;19.10;50.30
20526;DHT22;10421;49.142;9.232;2023-06-04T06:23:22;19.10;50.30
20526;DHT22;10421;49.142;9.232;2023-06-04T06:25:49;19.10;50.60
20526;DHT22;10421;49.142;9.232;2023-06-04T06:28:17;19.20;50.60
20526;DHT22;10421;49.142;9.232;2023-06-04T06:30:45;19.20;50.80
20526;DHT22;10421;49.142;9.232;2023-06-04T06:33:13;19.20;51.00
20526;DHT22;10421;49.142;9.232;2023-06-04T06:35:40;19.20;50.90
20526;DHT22;10421;49.142;9.232;2023-06-04T06:38:07;19.30;50.90
20526;DHT22;10421;49.142;9.232;2023-06-04T06:40:33;19.30;50.90
20526;DHT22;10421;49.142;9.232;2023-06-04T06:43:00;19.30;50.90
20526;DHT22;10421;49.142;9.232;2023-06-04T06:45:27;19.30;51.10
20526;DHT22;10421;49.142;9.232;2023-06-04T06:47:55;19.40;51.30
20526;DHT22;10421;49.142;9.232;2023-06-04T06:50:22;19.50;51.40
20526;DHT22;10421;49.142;9.232;2023-06-04T06:52:49;19.50;51.30
20526;DHT22;10421;49.142;9.232;2023-06-04T06:55:16;19.60;51.20
20526;DHT22;10421;49.142;9.232;2023-06-04T06:57:43;19.70;51.20
20526;DHT22;10421;49.142;9.232;2023-06-04T07:00:10;19.90;51.40
20526;DHT22;10421;49.142;9.232;2023-06-04T07:02:37;20.00;51.20
20526;DHT22;10421;49.142;9.232;2023-06-04T07:05:06;20.00;51.00
20526;DHT22;10421;49.142;9.232;2023-06-04T07:07:32;20.10;51.20
20526;DHT22;10421;49.142;9.232;2023-06-04T07:09:59;20.20;51.20
20526;DHT22;10421;49.142;9.232;2023-06-04T07:12:26;20.20;51.10
20526;DHT22;10421;49.142;9.232;2023-06-04T07:14:53;20.30;51.20
20526;DHT22;10421;49.142;9.232;2023-06-04T07:17:19;20.40;51.20
20526;DHT22;10421;49.142;9.232;2023-06-04T07:19:46;20.50;51.20
20526;DHT22;10421;49.142;9.232;2023-06-04T07:22:14;20.60;51.10
20526;DHT22;10421;49.142;9.232;2023-06-04T07:24:41;20.70;50.90
20526;DHT22;10421;49.142;9.232;2023-06-04T07:27:12;20.90;50.90
20526;DHT22;10421;49.142;9.232;2023-06-04T07:29:38;20.90;51.10
20526;DHT22;10421;49.142;9.232;2023-06-04T07:32:06;21.00;51.00
20526;DHT22;10421;49.142;9.232;2023-06-04T07:34:32;21.20;51.00
20526;DHT22;10421;49.142;9.232;2023-06-04T07:36:59;21.30;51.00
20526;DHT22;10421;49.142;9.232;2023-06-04T07:39:27;21.40;50.60
20526;DHT22;10421;49.142;9.232;2023-06-04T07:41:54;21.60;50.90
20526;DHT22;10421;49.142;9.232;2023-06-04T07:44:21;21.70;50.60
20526;DHT22;10421;49.142;9.232;2023-06-04T07:46:47;21.80;50.50
20526;DHT22;10421;49.142;9.232;2023-06-04T07:49:14;21.90;50.60
20526;DHT22;10421;49.142;9.232;2023-06-04T07:51:41;22.00;50.50
20526;DHT22;10421;49.142;9.232;2023-06-04T07:54:08;22.10;50.00
20526;DHT22;10421;49.142;9.232;2023-06-04T07:56:37;22.20;50.10
20526;DHT22;10421;49.142;9.232;2023-06-04T07:59:04;22.30;49.60
20526;DHT22;10421;49.142;9.232;2023-06-04T08:01:30;22.40;49.40
20526;DHT22;10421;49.142;9.232;2023-06-04T08:03:57;22.50;49.60
20526;DHT22;10421;49.142;9.232;2023-06-04T08:06:24;22.60;49.00
20526;DHT22;10421;49.142;9.232;2023-06-04T08:08:52;22.70;49.00
20526;DHT22;10421;49.142;9.232;2023-06-04T08:11:19;22.80;49.40
20526;DHT22;10421;49.142;9.232;2023-06-04T08:13:49;22.80;49.90
20526;DHT22;10421;49.142;9.232;2023-06-04T08:16:16;22.90;50.20
20526;DHT22;10421;49.142;9.232;2023-06-04T08:18:42;23.00;49.90
20526;DHT22;10421;49.142;9.232;2023-06-04T08:21:10;23.10;49.80
20526;DHT22;10421;49.142;9.232;2023-06-04T08:23:37;23.20;49.70
20526;DHT22;10421;49.142;9.232;2023-06-04T08:26:04;23.30;49.70
20526;DHT22;10421;49.142;9.232;2023-06-04T08:28:30;23.40;49.80
20526;DHT22;10421;49.142;9.232;2023-06-04T08:30:58;23.50;49.50
20526;DHT22;10421;49.142;9.232;2023-06-04T08:33:25;23.60;49.00
20526;DHT22;10421;49.142;9.232;2023-06-04T08:35:52;23.70;49.20
20526;DHT22;10421;49.142;9.232;2023-06-04T08:38:19;23.80;49.20
20526;DHT22;10421;49.142;9.232;2023-06-04T08:40:49;23.90;49.50
20526;DHT22;10421;49.142;9.232;2023-06-04T08:43:19;23.90;49.40
20526;DHT22;10421;49.142;9.232;2023-06-04T08:45:48;24.00;49.50
20526;DHT22;10421;49.142;9.232;2023-06-04T08:48:18;24.10;49.60
20526;DHT22;10421;49.142;9.232;2023-06-04T08:50:48;24.10;49.50
20526;DHT22;10421;49.142;9.232;2023-06-04T08:53:16;24.30;49.50
20526;DHT22;10421;49.142;9.232;2023-06-04T08:55:42;24.40;49.20
20526;DHT22;10421;49.142;9.232;2023-06-04T08:58:10;24.50;49.10
20526;DHT22;10421;49.142;9.232;2023-06-04T09:00:38;24.60;48.70
20526;DHT22;10421;49.142;9.232;2023-06-04T09:03:05;24.70;48.50
20526;DHT22;10421;49.142;9.232;2023-06-04T09:05:33;24.70;48.40
20526;DHT22;10421;49.142;9.232;2023-06-04T09:08:02;24.90;48.70
20526;DHT22;10421;49.142;9.232;2023-06-04T09:10:31;25.00;48.50
20526;DHT22;10421;49.142;9.232;2023-06-04T09:13:01;25.10;48.10
20526;DHT22;10421;49.142;9.232;2023-06-04T09:15:29;25.20;48.10
20526;DHT22;10421;49.142;9.232;2023-06-04T09:17:55;25.40;48.10
20526;DHT22;10421;49.142;9.232;2023-06-04T09:20:23;25.40;47.50
20526;DHT22;10421;49.142;9.232;2023-06-04T09:22:51;25.60;47.30
20526;DHT22;10421;49.142;9.232;2023-06-04T09:25:20;25.60;46.90
20526;DHT22;10421;49.142;9.232;2023-06-04T09:27:47;25.70;47.00
20526;DHT22;10421;49.142;9.232;2023-06-04T09:30:14;25.80;46.90
20526;DHT22;10421;49.142;9.232;2023-06-04T09:32:41;25.90;46.40
20526;DHT22;10421;49.142;9.232;2023-06-04T09:35:10;25.90;45.80
20526;DHT22;10421;49.142;9.232;2023-06-04T09:37:38;26.00;45.80
20526;DHT22;10421;49.142;9.232;2023-06-04T09:40:07;25.90;45.50
20526;DHT22;10421;49.142;9.232;2023-06-04T09:42:43;25.90;45.60
20526;DHT22;10421;49.142;9.232;2023-06-04T09:45:11;26.10;45.90
20526;DHT22;10421;49.142;9.232;2023-06-04T09:47:41;26.20;45.70
20526;DHT22;10421;49.142;9.232;2023-06-04T09:50:09;26.20;45.20
20526;DHT22;10421;49.142;9.232;2023-06-04T09:52:36;26.40;45.10
20526;DHT22;10421;49.142;9.232;2023-06-04T09:55:16;26.40;45.00
20526;DHT22;10421;49.142;9.232;2023-06-04T09:57:48;26.40;44.60
20526;DHT22;10421;49.142;9.232;2023-06-04T10:00:17;26.50;44.80
20526;DHT22;10421;49.142;9.232;2023-06-04T10:02:44;26.60;44.50
20526;DHT22;10421;49.142;9.232;2023-06-04T10:05:13;26.70;44.80
20526;DHT22;10421;49.142;9.232;2023-06-04T10:07:42;26.80;44.50
20526;DHT22;10421;49.142;9.232;2023-06-04T10:10:11;26.90;43.80
20526;DHT22;10421;49.142;9.232;2023-06-04T10:12:42;27.10;44.00
20526;DHT22;10421;49.142;9.232;2023-06-04T10:15:11;27.10;43.40
20526;DHT22;10421;49.142;9.232;2023-06-04T10:17:38;27.30;43.60
20526;DHT22;10421;49.142;9.232;2023-06-04T10:20:07;27.30;43.10
20526;DHT22;10421;49.142;9.232;2023-06-04T10:22:35;27.40;43.10
20526;DHT22;10421;49.142;9.232;2023-06-04T10:25:01;27.50;42.90
20526;DHT22;10421;49.142;9.232;2023-06-04T10:27:30;27.60;42.70
20526;DHT22;10421;49.142;9.232;2023-06-04T10:29:58;27.70;42.90
20526;DHT22;10421;49.142;9.232;2023-06-04T10:32:27;27.80;42.80
20526;DHT22;10421;49.142;9.232;2023-06-04T10:34:54;27.80;41.40
20526;DHT22;10421;49.142;9.232;2023-06-04T10:37:24;27.80;40.50
20526;DHT22;10421;49.142;9.232;2023-06-04T10:39:52;27.80;41.20
20526;DHT22;10421;49.142;9.232;2023-06-04T10:42:19;27.80;41.80
20526;DHT22;10421;49.142;9.232;2023-06-04T10:44:47;27.90;41.90
20526;DHT22;10421;49.142;9.232;2023-06-04T10:47:23;28.00;40.20
20526;DHT22;10421;49.142;9.232;2023-06-04T10:49:50;28.10;39.70
20526;DHT22;10421;49.142;9.232;2023-06-04T10:52:17;28.20;39.50
20526;DHT22;10421;49.142;9.232;2023-06-04T10:54:45;28.30;39.00
20526;DHT22;10421;49.142;9.232;2023-06-04T10:57:15;28.30;38.90
20526;DHT22;10421;49.142;9.232;2023-06-04T10:59:52;28.40;39.20
20526;DHT22;10421;49.142;9.232;2023-06-04T11:02:19;28.50;39.30
20526;DHT22;10421;49.142;9.232;2023-06-04T11:04:57;28.40;39.50
20526;DHT22;10421;49.142;9.232;2023-06-04T11:07:27;28.50;40.00
20526;DHT22;10421;49.142;9.232;2023-06-04T11:09:54;28.60;39.60
20526;DHT22;10421;49.142;9.232;2023-06-04T11:12:21;28.60;39.20
20526;DHT22;10421;49.142;9.232;2023-06-04T11:14:55;28.60;39.00
20526;DHT22;10421;49.142;9.232;2023-06-04T11:17:21;28.70;39.10
20526;DHT22;10421;49.142;9.232;2023-06-04T11:19:50;28.80;39.30
20526;DHT22;10421;49.142;9.232;2023-06-04T11:22:20;28.90;39.20
20526;DHT22;10421;49.142;9.232;2023-06-04T11:24:47;29.10;38.50
20526;DHT22;10421;49.142;9.232;2023-06-04T11:27:14;29.20;38.10
20526;DHT22;10421;49.142;9.232;2023-06-04T11:29:41;29.30;38.20
20526;DHT22;10421;49.142;9.232;2023-06-04T11:32:07;29.40;38.30
20526;DHT22;10421;49.142;9.232;2023-06-04T11:34:34;29.50;38.30
20526;DHT22;10421;49.142;9.232;2023-06-04T11:37:10;29.50;37.50
20526;DHT22;10421;49.142;9.232;2023-06-04T11:39:37;29.60;37.40
20526;DHT22;10421;49.142;9.232;2023-06-04T11:42:06;29.70;37.50
20526;DHT22;10421;49.142;9.232;2023-06-04T11:44:33;29.70;37.10
20526;DHT22;10421;49.142;9.232;2023-06-04T11:47:00;29.80;37.10
20526;DHT22;10421;49.142;9.232;2023-06-04T11:49:27;29.90;36.70
20526;DHT22;10421;49.142;9.232;2023-06-04T11:51:54;29.90;36.60
20526;DHT22;10421;49.142;9.232;2023-06-04T11:54:22;29.80;36.50
20526;DHT22;10421;49.142;9.232;2023-06-04T11:56:51;29.80;36.50
20526;DHT22;10421;49.142;9.232;2023-06-04T11:59:18;29.90;36.70
20526;DHT22;10421;49.142;9.232;2023-06-04T12:01:46;30.00;36.30
20526;DHT22;10421;49.142;9.232;2023-06-04T12:04:14;30.00;35.70
20526;DHT22;10421;49.142;9.232;2023-06-04T12:06:51;30.00;35.50
20526;DHT22;10421;49.142;9.232;2023-06-04T12:09:23;30.10;35.50
20526;DHT22;10421;49.142;9.232;2023-06-04T12:11:50;30.20;35.50
20526;DHT22;10421;49.142;9.232;2023-06-04T12:14:17;30.30;34.90
20526;DHT22;10421;49.142;9.232;2023-06-04T12:16:54;30.20;34.50
20526;DHT22;10421;49.142;9.232;2023-06-04T12:19:21;30.20;33.90
20526;DHT22;10421;49.142;9.232;2023-06-04T12:21:58;30.20;34.20
20526;DHT22;10421;49.142;9.232;2023-06-04T12:24:28;30.30;34.20
20526;DHT22;10421;49.142;9.232;2023-06-04T12:27:06;30.30;34.00
20526;DHT22;10421;49.142;9.232;2023-06-04T12:29:34;30.30;33.80
20526;DHT22;10421;49.142;9.232;2023-06-04T12:32:02;30.20;33.00
20526;DHT22;10421;49.142;9.232;2023-06-04T12:34:30;30.10;33.80
20526;DHT22;10421;49.142;9.232;2023-06-04T12:36:57;30.10;33.50
20526;DHT22;10421;49.142;9.232;2023-06-04T12:39:24;30.10;33.40
20526;DHT22;10421;49.142;9.232;2023-06-04T12:41:52;30.20;33.50
20526;DHT22;10421;49.142;9.232;2023-06-04T12:44:18;30.20;32.50
20526;DHT22;10421;49.142;9.232;2023-06-04T12:46:46;30.30;32.80
20526;DHT22;10421;49.142;9.232;2023-06-04T12:49:13;30.30;31.60
20526;DHT22;10421;49.142;9.232;2023-06-04T12:51:40;30.20;31.60
20526;DHT22;10421;49.142;9.232;2023-06-04T12:54:08;30.30;31.90
20526;DHT22;10421;49.142;9.232;2023-06-04T12:56:36;30.30;31.40
20526;DHT22;10421;49.142;9.232;2023-06-04T12:59:04;30.40;31.40
20526;DHT22;10421;49.142;9.232;2023-06-04T13:01:31;30.40;31.70
20526;DHT22;10421;49.142;9.232;2023-06-04T13:03:57;30.40;32.40
20526;DHT22;10421;49.142;9.232;2023-06-04T13:06:24;30.60;32.60
20526;DHT22;10421;49.142;9.232;2023-06-04T13:08:51;30.70;32.70
20526;DHT22;10421;49.142;9.232;2023-06-04T13:11:18;30.80;32.80
20526;DHT22;10421;49.142;9.232;2023-06-04T13:13:44;30.90;31.70
20526;DHT22;10421;49.142;9.232;2023-06-04T13:16:12;31.00;31.40
20526;DHT22;10421;49.142;9.232;2023-06-04T13:18:39;31.00;31.00
20526;DHT22;10421;49.142;9.232;2023-06-04T13:21:06;31.10;31.00
20526;DHT22;10421;49.142;9.232;2023-06-04T13:23:33;31.10;31.20
20526;DHT22;10421;49.142;9.232;2023-06-04T13:26:00;31.10;31.10
20526;DHT22;10421;49.142;9.232;2023-06-04T13:28:26;31.10;31.30
20526;DHT22;10421;49.142;9.232;2023-06-04T13:30:53;31.00;30.40
20526;DHT22;10421;49.142;9.232;2023-06-04T13:33:21;31.00;30.00
20526;DHT22;10421;49.142;9.232;2023-06-04T13:35:48;31.00;30.60
20526;DHT22;10421;49.142;9.232;2023-06-04T13:38:15;31.10;31.00
20526;DHT22;10421;49.142;9.232;2023-06-04T13:40:42;31.10;30.90
20526;DHT22;10421;49.142;9.232;2023-06-04T13:43:10;31.10;30.80
20526;DHT22;10421;49.142;9.232;2023-06-04T13:45:36;31.10;31.00
20526;DHT22;10421;49.142;9.232;2023-06-04T13:48:05;31.10;31.00
20526;DHT22;10421;49.142;9.232;2023-06-04T13:50:34;31.30;31.20
20526;DHT22;10421;49.142;9.232;2023-06-04T13:53:03;31.30;30.80
20526;DHT22;10421;49.142;9.232;2023-06-04T13:55:30;31.40;30.40
20526;DHT22;10421;49.142;9.232;2023-06-04T13:57:57;31.30;30.00
20526;DHT22;10421;49.142;9.232;2023-06-04T14:00:23;31.30;29.90
20526;DHT22;10421;49.142;9.232;2023-06-04T14:02:50;31.20;29.20
20526;DHT22;10421;49.142;9.232;2023-06-04T14:05:17;31.10;29.80
20526;DHT22;10421;49.142;9.232;2023-06-04T14:07:45;30.90;29.80
20526;DHT22;10421;49.142;9.232;2023-06-04T14:10:12;31.00;29.90
20526;DHT22;10421;49.142;9.232;2023-06-04T14:12:39;30.90;30.10
20526;DHT22;10421;49.142;9.232;2023-06-04T14:15:07;30.80;30.70
20526;DHT22;10421;49.142;9.232;2023-06-04T14:17:34;30.90;31.70
20526;DHT22;10421;49.142;9.232;2023-06-04T14:20:01;30.90;30.60
20526;DHT22;10421;49.142;9.232;2023-06-04T14:22:32;30.80;30.00
20526;DHT22;10421;49.142;9.232;2023-06-04T14:25:00;30.80;30.00
20526;DHT22;10421;49.142;9.232;2023-06-04T14:27:27;30.80;30.00
20526;DHT22;10421;49.142;9.232;2023-06-04T14:29:55;30.90;30.10
20526;DHT22;10421;49.142;9.232;2023-06-04T14:32:22;30.80;29.80
20526;DHT22;10421;49.142;9.232;2023-06-04T14:34:48;30.80;30.00
20526;DHT22;10421;49.142;9.232;2023-06-04T14:37:15;30.90;29.90
20526;DHT22;10421;49.142;9.232;2023-06-04T14:39:42;30.90;29.90
20526;DHT22;10421;49.142;9.232;2023-06-04T14:42:10;31.00;30.40
20526;DHT22;10421;49.142;9.232;2023-06-04T14:44:37;31.10;30.20
20526;DHT22;10421;49.142;9.232;2023-06-04T14:47:04;31.10;29.60
20526;DHT22;10421;49.142;9.232;2023-06-04T14:49:31;31.20;29.60
20526;DHT22;10421;49.142;9.232;2023-06-04T14:51:58;31.20;29.50
20526;DHT22;10421;49.142;9.232;2023-06-04T14:54:25;31.20;29.30
20526;DHT22;10421;49.142;9.232;2023-06-04T14:56:52;31.00;29.40
20526;DHT22;10421;49.142;9.232;2023-06-04T14:59:20;30.90;29.60
20526;DHT22;10421;49.142;9.232;2023-06-04T15:01:47;30.80;29.70
20526;DHT22;10421;49.142;9.232;2023-06-04T15:04:14;30.90;30.10
20526;DHT22;10421;49.142;9.232;2023-06-04T15:06:40;30.90;30.30
20526;DHT22;10421;49.142;9.232;2023-06-04T15:09:07;30.90;29.80
20526;DHT22;10421;49.142;9.232;2023-06-04T15:11:34;30.90;29.40
20526;DHT22;10421;49.142;9.232;2023-06-04T15:14:01;30.90;29.80
20526;DHT22;10421;49.142;9.232;2023-06-04T15:16:29;30.90;29.70
20526;DHT22;10421;49.142;9.232;2023-06-04T15:18:56;30.80;29.90
20526;DHT22;10421;49.142;9.232;2023-06-04T15:21:23;30.70;29.70
20526;DHT22;10421;49.142;9.232;2023-06-04T15:23:49;30.60;29.60
20526;DHT22;10421;49.142;9.232;2023-06-04T15:26:16;30.40;29.50
20526;DHT22;10421;49.142;9.232;2023-06-04T15:28:43;30.20;29.30
20526;DHT22;10421;49.142;9.232;2023-06-04T15:31:10;30.10;29.30
20526;DHT22;10421;49.142;9.232;2023-06-04T15:33:38;30.00;29.70